Time;durP1;ratioP1;P1;durP2;ratioP2;P2;SDS_P1;SDS_P2;PMS_P1;PMS_P2;Temp;Humidity;BMP_temperature;BMP_pressure;BME280_temperature;BME280_humidity;BME280_pressure;Samples;Min_cycle;Max_cycle;Signal;HPM_P1;HPM_P2
2022/09/09 00:00:35;;;;;;;12.77;6.73;;;;;;;23.00;100.00;100630.91;5013431;28;20272;-48
2022/09/09 00:03:14;;;;;;;18.10;7.47;;;;;;;22.86;100.00;100631.53;5000221;28;20280;-51
2022/09/09 00:06:08;;;;;;;14.77;7.20;;;;;;;22.77;100.00;100625.06;5001519;28;20293;-52
2022/09/09 00:09:20;;;;;;;14.53;6.63;;;;;;;22.34;100.00;100626.38;5013327;28;20272;-49
2022/09/09 00:12:10;;;;;;;14.60;6.53;;;;;;;21.17;100.00;100623.63;5014109;28;20348;-51
2022/09/09 00:14:39;;;;;;;15.63;5.97;;;;;;;21.37;100.00;100620.09;4996394;28;20265;-48
2022/09/09 00:17:13;;;;;;;10.57;5.53;;;;;;;21.50;100.00;100616.00;4991181;28;20301;-48
2022/09/09 00:19:50;;;;;;;14.27;6.37;;;;;;;21.78;100.00;100614.59;5008027;28;20283;-49
2022/09/09 00:22:15;;;;;;;;;;;;;;;21.70;100.00;100617.09;5004763;28;20261;-52
2022/09/09 00:24:43;;;;;;;10.97;4.67;;;;;;;21.57;100.00;100610.28;5002278;28;19944;-49
2022/09/09 00:27:41;;;;;;;13.03;4.60;;;;;;;20.72;100.00;100605.09;5000537;28;20031;-52
2022/09/09 00:30:10;;;;;;;13.10;5.43;;;;;;;20.61;100.00;100603.44;5007681;28;20295;-47
2022/09/09 00:32:37;;;;;;;8.83;4.63;;;;;;;20.87;100.00;100604.31;5019158;28;20276;-53
2022/09/09 00:35:17;;;;;;;9.48;4.45;;;;;;;21.49;100.00;100606.22;4993467;28;20272;-52
2022/09/09 00:37:47;;;;;;;61.57;26.33;;;;;;;20.80;100.00;100598.34;5002332;28;20046;-52
2022/09/09 00:40:35;;;;;;;12.83;6.83;;;;;;;21.21;100.00;100597.53;5009243;28;20268;-52
2022/09/09 00:43:37;;;;;;;18.50;6.70;;;;;;;21.25;100.00;100595.91;5014677;28;20334;-52
2022/09/09 00:46:25;;;;;;;14.07;7.90;;;;;;;21.47;100.00;100589.34;4997206;28;20333;-51
2022/09/09 00:48:59;;;;;;;;;;;;;;;20.16;100.00;100593.00;4989514;28;20269;-50
2022/09/09 00:51:43;;;;;;;21.33;8.53;;;;;;;20.70;100.00;100603.75;4980358;28;19968;-50
2022/09/09 00:54:32;;;;;;;12.07;6.00;;;;;;;21.70;100.00;100589.88;4985931;28;20284;-53
2022/09/09 00:57:37;;;;;;;22.63;9.87;;;;;;;21.34;100.00;100593.47;4981643;28;20285;-51
2022/09/09 01:00:20;;;;;;;17.57;6.63;;;;;;;22.98;100.00;100598.44;4982142;28;20289;-50
2022/09/09 01:03:24;;;;;;;27.67;14.43;;;;;;;22.55;100.00;100596.31;4973608;28;20285;-52
2022/09/09 01:06:04;;;;;;;17.83;10.17;;;;;;;22.88;100.00;100604.81;4980690;28;20677;-50
2022/09/09 01:08:50;;;;;;;15.27;6.73;;;;;;;23.05;100.00;100601.66;4971099;28;20272;-50
2022/09/09 01:11:29;;;;;;;20.90;9.33;;;;;;;22.22;100.00;100590.47;4972474;28;20280;-52
2022/09/09 01:14:25;;;;;;;13.07;6.23;;;;;;;20.20;100.00;100583.25;4973312;28;20265;-49
2022/09/09 01:16:57;;;;;;;14.07;6.50;;;;;;;19.65;100.00;100582.69;4973162;28;20273;-52
2022/09/09 01:19:49;;;;;;;13.90;7.10;;;;;;;19.97;100.00;100575.56;4977310;28;20351;-52
2022/09/09 01:22:45;;;;;;;14.97;6.67;;;;;;;20.21;100.00;100575.94;4976327;28;20460;-53
2022/09/09 01:25:20;;;;;;;11.33;6.53;;;;;;;19.75;100.00;100581.94;4992213;28;20353;-49
2022/09/09 01:28:08;;;;;;;18.93;7.37;;;;;;;22.24;100.00;100580.09;4967140;28;20284;-49
2022/09/09 01:30:37;;;;;;;15.13;6.37;;;;;;;22.20;100.00;100579.03;4976266;28;20269;-53
2022/09/09 01:33:04;;;;;;;13.97;6.17;;;;;;;18.94;100.00;100581.91;4979895;28;20316;-48
2022/09/09 01:35:54;;;;;;;15.00;6.07;;;;;;;18.74;100.00;100583.38;4974542;28;20273;-52
2022/09/09 01:38:21;;;;;;;11.93;6.37;;;;;;;18.92;100.00;100584.88;4970957;28;20256;-48
2022/09/09 01:40:52;;;;;;;9.20;5.97;;;;;;;18.88;100.00;100577.50;4968177;28;20284;-49
2022/09/09 01:43:21;;;;;;;16.50;7.53;;;;;;;18.65;100.00;100584.88;4980533;28;20276;-49
2022/09/09 01:45:50;;;;;;;11.57;6.53;;;;;;;18.70;100.00;100576.84;4982507;28;20289;-49
2022/09/09 01:48:17;;;;;;;11.30;6.47;;;;;;;18.81;100.00;100579.63;5002748;28;20319;-50
2022/09/09 01:50:49;;;;;;;17.57;6.87;;;;;;;18.50;100.00;100580.13;5015340;28;20277;-49
2022/09/09 01:53:17;;;;;;;16.35;7.75;;;;;;;18.68;100.00;100576.25;5023197;28;20285;-47
2022/09/09 01:55:48;;;;;;;11.93;6.97;;;;;;;18.88;100.00;100577.50;4978567;28;20042;-48
2022/09/09 01:58:56;;;;;;;16.40;7.77;;;;;;;19.10;100.00;100571.22;5005740;28;20303;-48
2022/09/09 02:02:07;;;;;;;15.20;7.30;;;;;;;18.94;100.00;100562.13;5004907;28;20280;-51
2022/09/09 02:04:41;;;;;;;17.23;7.50;;;;;;;18.81;100.00;100566.91;4986467;28;20281;-50
2022/09/09 02:07:37;;;;;;;19.13;7.83;;;;;;;19.02;100.00;100561.66;4977271;28;20287;-50
2022/09/09 02:10:11;;;;;;;14.47;7.80;;;;;;;18.08;100.00;100564.50;4985615;28;20265;-48
2022/09/09 02:12:44;;;;;;;11.17;6.33;;;;;;;18.19;100.00;100563.56;5008546;28;20346;-48
2022/09/09 02:15:20;;;;;;;12.63;6.80;;;;;;;18.30;100.00;100562.59;5004998;28;20272;-48
2022/09/09 02:17:51;;;;;;;17.70;6.90;;;;;;;18.79;100.00;100560.91;4997340;28;20271;-46
2022/09/09 02:20:19;;;;;;;13.20;7.13;;;;;;;17.59;100.00;100564.16;5005480;28;20278;-48
2022/09/09 02:22:50;;;;;;;17.03;7.53;;;;;;;18.43;100.00;100558.69;4986336;28;20332;-51
2022/09/09 02:25:21;;;;;;;14.93;7.77;;;;;;;18.38;100.00;100561.34;5024617;28;20295;-48
2022/09/09 02:27:51;;;;;;;16.17;8.00;;;;;;;21.11;100.00;100554.03;4995466;28;20291;-48
2022/09/09 02:30:17;;;;;;;21.73;8.43;;;;;;;18.09;100.00;100555.31;5010930;28;20291;-47
2022/09/09 02:32:52;;;;;;;16.43;8.07;;;;;;;17.97;100.00;100552.72;5013493;28;20277;-51
2022/09/09 02:35:24;;;;;;;14.73;7.50;;;;;;;18.00;100.00;100550.34;5000390;28;20278;-47
2022/09/09 02:37:53;;;;;;;13.77;7.47;;;;;;;18.14;100.00;100552.69;4996324;28;20276;-49
2022/09/09 02:40:20;;;;;;;14.50;7.27;;;;;;;21.14;100.00;100548.06;4973971;28;20249;-50
2022/09/09 02:42:54;;;;;;;12.30;7.13;;;;;;;18.13;100.00;100548.34;5016322;28;20281;-48
2022/09/09 02:45:24;;;;;;;22.10;8.00;;;;;;;20.11;100.00;100544.13;4990353;28;20280;-50
2022/09/09 02:47:52;;;;;;;14.20;7.27;;;;;;;21.42;100.00;100535.78;4998673;28;20280;-48
2022/09/09 02:50:29;;;;;;;17.13;7.33;;;;;;;20.29;100.00;100544.69;4987158;28;20296;-49
2022/09/09 02:53:00;;;;;;;14.37;7.30;;;;;;;18.10;100.00;100552.38;4977622;28;20310;-48
2022/09/09 02:55:42;;;;;;;14.97;7.80;;;;;;;18.21;100.00;100553.31;4994834;28;20265;-48
2022/09/09 02:58:16;;;;;;;13.60;7.40;;;;;;;18.18;100.00;100554.63;5030642;28;20280;-49
2022/09/09 03:00:48;;;;;;;14.80;7.43;;;;;;;18.28;100.00;100553.13;4998338;28;20290;-50
2022/09/09 03:03:16;;;;;;;14.47;7.60;;;;;;;17.87;100.00;100554.25;5019350;28;20329;-50
2022/09/09 03:05:42;;;;;;;18.87;9.07;;;;;;;18.65;100.00;100555.09;4992306;28;20280;-51
2022/09/09 03:08:09;;;;;;;16.30;7.47;;;;;;;17.83;100.00;100550.41;5014330;28;20283;-48
2022/09/09 03:10:36;;;;;;;12.30;7.20;;;;;;;18.34;100.00;100558.34;5021409;28;20269;-51
2022/09/09 03:13:05;;;;;;;15.70;7.50;;;;;;;17.75;100.00;100561.63;4987310;28;20373;-51
2022/09/09 03:15:35;;;;;;;21.33;7.40;;;;;;;18.11;100.00;100559.41;4997840;28;20273;-51
2022/09/09 03:18:01;;;;;;;22.50;7.90;;;;;;;18.15;100.00;100554.34;5000721;28;20274;-49
2022/09/09 03:20:30;;;;;;;14.67;7.43;;;;;;;18.10;100.00;100555.09;5012668;28;20034;-51
2022/09/09 03:22:57;;;;;;;15.80;6.70;;;;;;;18.02;100.00;100559.03;5023904;28;20266;-51
2022/09/09 03:25:23;;;;;;;20.27;7.23;;;;;;;18.63;100.00;100560.78;5008285;28;20280;-50
2022/09/09 03:27:52;;;;;;;26.10;7.47;;;;;;;18.22;100.00;100564.94;4985490;28;20031;-52
2022/09/09 03:30:19;;;;;;;18.50;7.13;;;;;;;18.22;100.00;100565.78;4989367;28;20260;-51
2022/09/09 03:32:45;;;;;;;14.55;7.20;;;;;;;18.48;100.00;100561.47;4995440;28;20310;-51
2022/09/09 03:35:10;;;;;;;12.30;7.25;;;;;;;18.26;100.00;100560.69;5001292;28;20482;-47
2022/09/09 03:37:36;;;;;;;19.10;7.30;;;;;;;17.76;100.00;100553.28;4988171;28;20062;-53
2022/09/09 03:40:02;;;;;;;;;;;;;;;17.50;100.00;100562.94;4991607;28;20038;-51
2022/09/09 03:42:28;;;;;;;18.67;6.53;;;;;;;17.93;100.00;100563.25;5016913;28;19913;-50
2022/09/09 03:44:57;;;;;;;16.60;6.00;;;;;;;18.48;100.00;100564.16;5004809;28;20026;-54
2022/09/09 03:47:24;;;;;;;12.10;6.70;;;;;;;17.54;100.00;100569.50;5049611;28;20338;-49
2022/09/09 03:49:55;;;;;;;20.60;6.07;;;;;;;18.28;100.00;100558.53;5051488;28;20294;-52
2022/09/09 03:52:24;;;;;;;;;;;;;;;17.44;100.00;100558.53;5060906;28;20270;-50
2022/09/09 03:54:51;;;;;;;17.97;6.07;;;;;;;17.41;100.00;100553.63;5055705;28;19913;-54
2022/09/09 03:57:17;;;;;;;17.15;5.95;;;;;;;17.40;100.00;100549.28;5061764;28;20266;-51
2022/09/09 03:59:43;;;;;;;13.77;6.18;;;;;;;17.43;100.00;100549.63;5056720;28;20108;-51
2022/09/09 04:02:10;;;;;;;17.02;6.35;;;;;;;17.36;100.00;100540.84;5064674;28;20096;-48
2022/09/09 04:04:35;;;;;;;10.90;5.38;;;;;;;17.63;100.00;100538.25;5064529;28;20040;-50
2022/09/09 04:07:02;;;;;;;16.30;6.75;;;;;;;17.90;100.00;100545.63;5063276;28;20045;-52
2022/09/09 04:09:28;;;;;;;11.40;6.13;;;;;;;21.34;100.00;100537.13;5057659;28;20036;-51
2022/09/09 04:11:53;;;;;;;13.10;5.65;;;;;;;20.73;100.00;100541.50;5056913;28;20032;-51
2022/09/09 04:14:19;;;;;;;17.38;6.15;;;;;;;18.47;100.00;100540.88;5053349;28;20773;-51
2022/09/09 04:16:45;;;;;;;12.07;5.43;;;;;;;18.31;100.00;100541.78;5059753;28;20072;-49
2022/09/09 04:19:13;;;;;;;17.52;6.32;;;;;;;21.42;100.00;100532.22;5053460;28;20290;-49
2022/09/09 04:21:41;;;;;;;12.93;6.03;;;;;;;19.18;100.00;100528.19;5055674;28;20366;-55
2022/09/09 04:24:08;;;;;;;21.57;7.53;;;;;;;17.85;100.00;100533.91;5055748;28;20266;-51
2022/09/09 04:26:36;;;;;;;15.73;6.00;;;;;;;17.66;100.00;100533.41;5065064;28;20382;-51
2022/09/09 04:29:03;;;;;;;16.03;6.50;;;;;;;17.98;100.00;100532.72;5058872;28;20040;-55
2022/09/09 04:31:30;;;;;;;11.03;5.27;;;;;;;17.80;100.00;100537.38;5056414;28;20271;-52
2022/09/09 04:33:55;;;;;;;;;;;;;;;22.35;100.00;100538.09;5056818;28;20273;-48
2022/09/09 04:36:22;;;;;;;17.57;6.40;;;;;;;23.32;100.00;100540.38;5053007;28;20284;-49
2022/09/09 04:38:50;;;;;;;17.47;6.67;;;;;;;18.71;100.00;100528.88;5058116;28;20294;-50
2022/09/09 04:41:17;;;;;;;23.38;8.70;;;;;;;21.94;100.00;100521.19;5053250;28;20278;-53
2022/09/09 04:43:44;;;;;;;11.67;6.60;;;;;;;22.04;100.00;100521.13;5047741;28;20597;-49
2022/09/09 04:46:12;;;;;;;10.50;5.20;;;;;;;18.57;100.00;100523.06;5029890;28;20282;-49
2022/09/09 04:48:38;;;;;;;16.63;5.82;;;;;;;17.89;100.00;100524.25;4987833;28;20288;-52
2022/09/09 04:51:09;;;;;;;21.53;7.37;;;;;;;18.41;100.00;100528.34;4977240;28;20039;-54
2022/09/09 04:53:35;;;;;;;11.53;5.87;;;;;;;19.09;100.00;100520.81;4973538;28;20301;-48
2022/09/09 04:56:06;;;;;;;13.25;5.78;;;;;;;18.58;100.00;100530.94;4987723;28;20270;-52
2022/09/09 04:58:36;;;;;;;18.53;5.63;;;;;;;18.76;100.00;100527.03;4974528;28;20046;-54
2022/09/09 05:01:17;;;;;;;14.53;5.77;;;;;;;17.92;100.00;100527.25;4969863;28;20278;-54
2022/09/09 05:03:47;;;;;;;13.40;5.00;;;;;;;17.79;100.00;100519.53;4976779;28;20281;-53
2022/09/09 05:06:18;;;;;;;20.27;5.37;;;;;;;17.25;100.00;100520.94;4985557;28;20345;-53
2022/09/09 05:08:45;;;;;;;14.87;5.33;;;;;;;18.33;100.00;100526.09;4989612;28;20281;-51
2022/09/09 05:11:16;;;;;;;19.00;6.03;;;;;;;17.22;100.00;100513.34;4983868;28;20277;-50
2022/09/09 05:13:42;;;;;;;10.57;5.30;;;;;;;17.54;100.00;100514.59;4968767;28;20455;-50
2022/09/09 05:16:10;;;;;;;14.80;5.20;;;;;;;17.30;100.00;100518.34;4975251;28;20285;-49
2022/09/09 05:18:35;;;;;;;13.97;5.47;;;;;;;16.95;100.00;100521.28;4972370;28;20063;-48
2022/09/09 05:21:01;;;;;;;15.10;4.97;;;;;;;17.42;100.00;100523.66;4974890;28;20285;-49
2022/09/09 05:23:27;;;;;;;17.60;5.32;;;;;;;17.08;100.00;100514.78;4973693;28;20084;-49
2022/09/09 05:25:57;;;;;;;;;;;;;;;17.79;100.00;100522.22;4992096;28;20046;-51
2022/09/09 05:28:25;;;;;;;13.57;5.33;;;;;;;17.48;100.00;100519.09;4977837;28;19915;-49
2022/09/09 05:31:00;;;;;;;10.57;4.73;;;;;;;17.72;100.00;100513.47;4987557;28;20284;-52
2022/09/09 05:33:27;;;;;;;9.90;4.50;;;;;;;17.77;100.00;100508.16;4981983;28;20261;-50
2022/09/09 05:36:01;;;;;;;12.63;5.00;;;;;;;17.53;100.00;100502.16;4973116;28;20303;-52
2022/09/09 05:38:28;;;;;;;10.03;4.23;;;;;;;18.77;100.00;100504.28;4974202;28;20103;-52
2022/09/09 05:40:53;;;;;;;12.32;4.47;;;;;;;17.98;100.00;100501.06;4980797;28;20281;-50
2022/09/09 05:43:19;;;;;;;10.85;4.60;;;;;;;17.81;100.00;100503.88;4989886;28;20033;-50
2022/09/09 05:45:47;;;;;;;11.77;4.67;;;;;;;17.68;100.00;100502.34;4980503;28;20181;-50
2022/09/09 05:48:17;;;;;;;12.37;4.30;;;;;;;17.89;100.00;100497.19;5009980;28;20280;-48
2022/09/09 05:50:52;;;;;;;10.70;4.93;;;;;;;18.29;100.00;100506.03;5009929;28;20288;-50
2022/09/09 05:53:18;;;;;;;17.70;4.00;;;;;;;18.70;100.00;100514.53;5019707;28;20277;-49
2022/09/09 05:55:45;;;;;;;18.80;5.60;;;;;;;18.20;100.00;100514.59;5007220;28;20283;-51
2022/09/09 05:58:11;;;;;;;12.03;3.53;;;;;;;18.06;100.00;100513.38;5012635;28;20045;-48
2022/09/09 06:00:37;;;;;;;12.90;4.72;;;;;;;21.40;100.00;100516.19;5000416;28;20269;-52
2022/09/09 06:03:03;;;;;;;15.90;3.97;;;;;;;18.36;100.00;100519.38;5001418;28;20068;-50
2022/09/09 06:05:30;;;;;;;10.15;3.75;;;;;;;20.68;100.00;100525.22;5007184;28;20421;-53
2022/09/09 06:07:56;;;;;;;17.17;4.80;;;;;;;22.14;100.00;100531.94;5001365;28;20027;-55
2022/09/09 06:10:23;;;;;;;17.90;4.27;;;;;;;22.39;100.00;100527.47;5010500;28;20299;-48
2022/09/09 06:12:48;;;;;;;13.57;3.67;;;;;;;22.06;100.00;100522.50;5008543;28;20304;-52
2022/09/09 06:15:14;;;;;;;19.33;4.97;;;;;;;21.98;100.00;100528.50;4994369;28;20054;-48
2022/09/09 06:17:41;;;;;;;12.95;4.20;;;;;;;22.35;100.00;100529.09;4995122;28;20039;-48
2022/09/09 06:20:09;;;;;;;14.07;4.17;;;;;;;22.80;100.00;100525.53;5003200;28;20064;-51
2022/09/09 06:22:34;;;;;;;14.00;4.40;;;;;;;22.60;100.00;100525.44;4997689;28;20298;-48
2022/09/09 06:25:00;;;;;;;14.50;4.78;;;;;;;22.03;100.00;100525.78;5005548;28;20270;-51
2022/09/09 06:27:27;;;;;;;;;;;;;;;22.13;100.00;100529.53;4993058;28;20031;-52
2022/09/09 06:29:53;;;;;;;22.05;4.47;;;;;;;22.68;100.00;100521.28;4986043;28;19922;-53
2022/09/09 06:32:19;;;;;;;11.43;3.90;;;;;;;22.41;100.00;100525.28;4997579;28;20049;-52
2022/09/09 06:34:45;;;;;;;15.93;4.18;;;;;;;23.04;100.00;100515.50;4994124;28;20064;-47
2022/09/09 06:37:11;;;;;;;12.35;4.25;;;;;;;22.96;100.00;100521.59;5004248;28;20061;-51
2022/09/09 06:39:41;;;;;;;14.83;5.10;;;;;;;22.74;100.00;100531.03;5004694;28;20034;-51
2022/09/09 06:42:09;;;;;;;;;;;;;;;22.97;100.00;100525.94;4996995;28;20038;-52
2022/09/09 06:44:54;;;;;;;20.57;5.47;;;;;;;22.97;100.00;100519.69;4997861;28;19925;-48
2022/09/09 06:47:44;;;;;;;10.70;3.40;;;;;;;22.85;100.00;100529.03;4995180;28;20297;-52
2022/09/09 06:50:10;;;;;;;15.00;3.70;;;;;;;22.80;100.00;100512.72;5027750;28;20035;-50
2022/09/09 06:52:36;;;;;;;11.37;3.83;;;;;;;19.25;100.00;100519.00;5014380;28;20094;-50
2022/09/09 06:55:03;;;;;;;18.90;3.80;;;;;;;18.98;100.00;100537.00;5005263;28;20030;-49
2022/09/09 06:57:30;;;;;;;19.17;3.40;;;;;;;19.02;100.00;100512.88;5003663;28;20042;-55
2022/09/09 06:59:56;;;;;;;14.23;3.25;;;;;;;19.34;100.00;100504.69;5002204;28;20088;-54
2022/09/09 07:02:22;;;;;;;9.95;3.47;;;;;;;19.60;100.00;100520.28;4995200;28;20103;-52
2022/09/09 07:04:50;;;;;;;19.02;3.97;;;;;;;19.34;100.00;100541.84;5008030;28;20047;-53
2022/09/09 07:07:17;;;;;;;13.07;3.53;;;;;;;19.33;100.00;100511.19;5005564;28;20046;-55
2022/09/09 07:09:45;;;;;;;16.00;3.30;;;;;;;19.70;100.00;100504.06;5036132;28;20039;-50
2022/09/09 07:12:12;;;;;;;14.70;3.23;;;;;;;19.47;100.00;100513.44;5005969;28;20263;-48
2022/09/09 07:14:43;;;;;;;9.57;3.40;;;;;;;20.06;100.00;100514.25;5002613;28;20034;-51
2022/09/09 07:17:09;;;;;;;10.85;2.80;;;;;;;20.46;100.00;100511.91;4991014;28;20096;-49
2022/09/09 07:19:37;;;;;;;20.53;3.53;;;;;;;20.55;100.00;100514.91;4980877;28;20107;-52
2022/09/09 07:22:06;;;;;;;14.73;3.27;;;;;;;20.51;100.00;100513.78;4993752;28;20030;-52
2022/09/09 07:24:33;;;;;;;9.07;3.20;;;;;;;19.51;100.00;100528.13;4980538;28;20046;-54
2022/09/09 07:27:00;;;;;;;14.73;3.23;;;;;;;19.47;100.00;100514.25;4994557;28;20086;-54
2022/09/09 07:29:26;;;;;;;18.52;3.15;;;;;;;19.73;100.00;100503.53;4979959;28;20031;-52
2022/09/09 07:31:52;;;;;;;9.60;2.63;;;;;;;19.55;100.00;100542.78;5013335;28;20048;-53
2022/09/09 07:34:23;;;;;;;12.90;3.13;;;;;;;19.61;100.00;100516.50;5001263;28;20030;-54
2022/09/09 07:36:48;;;;;;;9.25;2.30;;;;;;;19.94;100.00;100506.34;5008046;28;20029;-53
2022/09/09 07:39:17;;;;;;;7.13;2.17;;;;;;;19.98;100.00;100529.16;5009308;28;20098;-53
2022/09/09 07:41:49;;;;;;;8.93;2.67;;;;;;;19.65;100.00;100519.50;5001039;28;20095;-54
2022/09/09 07:44:21;;;;;;;9.07;2.53;;;;;;;20.10;100.00;100517.25;5018892;28;20026;-54
2022/09/09 07:46:50;;;;;;;15.03;2.60;;;;;;;20.05;100.00;100520.75;4997516;28;20062;-54
2022/09/09 07:49:21;;;;;;;13.20;3.57;;;;;;;20.01;100.00;100527.81;4979665;28;20056;-55
2022/09/09 07:51:48;;;;;;;13.77;3.67;;;;;;;19.62;100.00;100540.66;4983191;28;20032;-55
2022/09/09 07:54:20;;;;;;;8.70;2.73;;;;;;;20.65;100.00;100528.47;4994533;28;20125;-50
2022/09/09 07:56:49;;;;;;;17.13;3.30;;;;;;;20.15;100.00;100523.50;4985184;28;20042;-53
2022/09/09 07:59:16;;;;;;;8.57;2.13;;;;;;;20.10;100.00;100514.53;4974896;28;20035;-49
2022/09/09 08:01:46;;;;;;;11.80;2.90;;;;;;;20.36;100.00;100529.00;4972987;28;20035;-53
2022/09/09 08:04:18;;;;;;;9.23;2.73;;;;;;;20.41;100.00;100534.44;4996484;28;20031;-54
2022/09/09 08:06:54;;;;;;;12.73;2.37;;;;;;;20.40;100.00;100523.81;4971425;28;20043;-52
2022/09/09 08:09:21;;;;;;;12.70;3.03;;;;;;;19.89;100.00;100536.16;4972216;28;20041;-53
2022/09/09 08:11:48;;;;;;;13.00;2.70;;;;;;;20.50;100.00;100529.28;4978047;28;20066;-51
2022/09/09 08:14:14;;;;;;;11.10;3.00;;;;;;;20.77;100.00;100534.47;4981564;28;20039;-52
2022/09/09 08:16:44;;;;;;;11.60;3.10;;;;;;;20.64;100.00;100526.84;4982140;28;20719;-56
2022/09/09 08:19:15;;;;;;;7.23;2.67;;;;;;;19.86;100.00;100523.13;4971502;28;20024;-51
2022/09/09 08:21:42;;;;;;;12.10;2.47;;;;;;;19.96;100.00;100534.06;4972247;28;20394;-49
2022/09/09 08:24:16;;;;;;;11.33;2.50;;;;;;;21.98;100.00;100555.72;4972703;28;20029;-49
2022/09/09 08:26:49;;;;;;;12.90;2.97;;;;;;;23.24;100.00;100540.94;4969934;28;20081;-50
2022/09/09 08:29:17;;;;;;;10.00;3.17;;;;;;;20.51;100.00;100535.50;4974549;28;20028;-49
2022/09/09 08:31:49;;;;;;;8.80;2.40;;;;;;;20.24;100.00;100534.66;4973838;28;20053;-52
2022/09/09 08:34:15;;;;;;;12.97;3.30;;;;;;;20.85;100.00;100526.88;4989809;28;20049;-53
2022/09/09 08:36:44;;;;;;;9.23;2.10;;;;;;;24.15;100.00;100535.84;4983370;28;20038;-50
2022/09/09 08:39:13;;;;;;;13.20;2.77;;;;;;;24.25;100.00;100551.28;4973157;28;20034;-55
2022/09/09 08:41:44;;;;;;;8.40;2.60;;;;;;;24.20;100.00;100568.53;4982883;28;20042;-48
2022/09/09 08:44:57;;;;;;;9.20;2.20;;;;;;;24.95;100.00;100546.09;4972191;28;20095;-51
2022/09/09 08:47:49;;;;;;;9.20;2.00;;;;;;;22.28;100.00;100542.22;4991684;28;20073;-48
2022/09/09 08:50:25;;;;;;;12.97;2.73;;;;;;;21.18;100.00;100547.25;4990943;28;20035;-49
2022/09/09 08:53:24;;;;;;;9.83;2.57;;;;;;;21.01;100.00;100547.53;4973434;28;20041;-52
2022/09/09 08:55:54;;;;;;;13.85;2.03;;;;;;;20.82;100.00;100546.44;4969726;28;20130;-49
2022/09/09 08:58:29;;;;;;;11.67;2.93;;;;;;;20.65;100.00;100550.19;4989534;28;20057;-50
2022/09/09 09:01:09;;;;;;;11.77;2.30;;;;;;;20.82;100.00;100563.56;4999529;28;20095;-52
2022/09/09 09:03:42;;;;;;;10.77;2.10;;;;;;;20.35;100.00;100543.66;4985151;28;20032;-48
2022/09/09 09:06:30;;;;;;;8.60;2.53;;;;;;;20.71;100.00;100549.13;4981798;28;20043;-50
2022/09/09 09:09:23;;;;;;;9.67;2.37;;;;;;;21.38;100.00;100555.63;4973666;28;20035;-52
2022/09/09 09:12:00;;;;;;;9.83;2.93;;;;;;;21.55;100.00;100547.16;4992844;28;20075;-53
2022/09/09 09:14:33;;;;;;;9.10;2.27;;;;;;;20.71;100.00;100557.28;4989951;28;20064;-50
2022/09/09 09:17:12;;;;;;;12.33;3.40;;;;;;;20.55;100.00;100558.34;4982327;28;20161;-52
2022/09/09 09:19:40;;;;;;;12.30;3.30;;;;;;;20.67;100.00;100545.31;4988034;28;20066;-54
2022/09/09 09:22:19;;;;;;;8.80;2.53;;;;;;;20.56;100.00;100549.91;4987294;28;20038;-52
2022/09/09 09:25:00;;;;;;;11.47;2.30;;;;;;;20.97;100.00;100554.59;4983726;28;20104;-48
2022/09/09 09:27:35;;;;;;;11.07;2.47;;;;;;;20.74;100.00;100548.56;4996796;28;20032;-49
2022/09/09 09:30:20;;;;;;;11.33;2.57;;;;;;;21.73;100.00;100573.00;4991742;28;20044;-55
2022/09/09 09:33:05;;;;;;;10.43;2.27;;;;;;;22.94;100.00;100561.97;4967159;28;20028;-53
2022/09/09 09:35:31;;;;;;;9.63;2.27;;;;;;;23.94;100.00;100562.56;4987070;28;20039;-51
2022/09/09 09:38:00;;;;;;;19.08;6.53;;;;;;;24.40;100.00;100570.16;4978345;28;20031;-50
2022/09/09 09:40:27;;;;;;;23.23;8.53;;;;;;;21.48;100.00;100563.78;4982351;28;20028;-52
2022/09/09 09:43:08;;;;;;;7.45;2.10;;;;;;;21.12;100.00;100561.09;4994645;28;20027;-53
2022/09/09 09:45:47;;;;;;;10.03;2.37;;;;;;;20.90;100.00;100559.47;4988496;28;20043;-54
2022/09/09 09:48:14;;;;;;;15.43;2.93;;;;;;;21.84;100.00;100560.97;4977347;28;20075;-55
2022/09/09 09:51:03;;;;;;;14.63;3.58;;;;;;;21.42;100.00;100548.53;4997797;28;20038;-54
2022/09/09 09:53:32;;;;;;;11.57;2.30;;;;;;;20.96;100.00;100573.91;5000224;28;20050;-52
2022/09/09 09:56:01;;;;;;;16.50;2.63;;;;;;;23.22;100.00;100570.44;5001295;28;20045;-50
2022/09/09 09:58:32;;;;;;;14.73;2.40;;;;;;;22.83;100.00;100554.94;4991723;28;20027;-54
2022/09/09 10:00:59;;;;;;;8.13;2.00;;;;;;;23.06;100.00;100575.22;5000231;28;20030;-51
2022/09/09 10:03:32;;;;;;;11.33;2.43;;;;;;;22.85;100.00;100567.22;4994455;28;20027;-53
2022/09/09 10:06:00;;;;;;;10.57;2.10;;;;;;;22.58;100.00;100563.06;5001009;28;20037;-54
2022/09/09 10:08:27;;;;;;;;;;;;;;;22.91;100.00;100559.81;5009821;28;20042;-52
2022/09/09 10:11:16;;;;;;;8.80;2.30;;;;;;;22.12;100.00;100598.69;4995190;28;19922;-52
2022/09/09 10:14:05;;;;;;;12.10;2.50;;;;;;;21.81;100.00;100577.84;5007897;28;20042;-48
2022/09/09 10:16:57;;;;;;;16.83;3.17;;;;;;;21.79;100.00;100582.75;5011052;28;20090;-54
2022/09/09 10:19:33;;;;;;;10.73;2.93;;;;;;;21.46;100.00;100585.00;4986378;28;20054;-50
2022/09/09 10:22:12;;;;;;;11.90;3.53;;;;;;;21.76;100.00;100575.94;5004589;28;20094;-51
2022/09/09 10:24:57;;;;;;;15.23;4.43;;;;;;;22.12;100.00;100583.16;4993603;28;20038;-50
2022/09/09 10:27:49;;;;;;;19.30;4.27;;;;;;;21.17;100.00;100580.97;4991022;28;20034;-53
2022/09/09 10:30:23;;;;;;;15.23;4.30;;;;;;;21.79;100.00;100585.47;5018139;28;20043;-49
2022/09/09 10:33:05;;;;;;;9.33;4.83;;;;;;;21.43;100.00;100590.97;5000917;28;20067;-49
2022/09/09 10:35:34;;;;;;;27.87;5.70;;;;;;;21.01;100.00;100580.16;5001344;28;20038;-52
2022/09/09 10:38:17;;;;;;;17.57;5.57;;;;;;;21.94;100.00;100578.38;5003263;28;20090;-54
2022/09/09 10:40:58;;;;;;;18.80;4.93;;;;;;;22.49;100.00;100576.47;5000540;28;20050;-52
2022/09/09 10:44:00;;;;;;;13.20;5.10;;;;;;;23.11;100.00;100579.81;5008474;28;20061;-53
2022/09/09 10:47:07;;;;;;;25.37;8.53;;;;;;;24.53;100.00;100562.34;4992837;28;20115;-51
2022/09/09 10:50:11;;;;;;;18.60;4.83;;;;;;;24.59;100.00;100572.09;4930877;28;20529;-49
2022/09/09 10:52:53;;;;;;;12.73;3.60;;;;;;;23.28;100.00;100582.94;4995014;28;20098;-54
2022/09/09 10:55:26;;;;;;;11.53;4.07;;;;;;;22.29;100.00;100565.66;5009916;28;20038;-53
2022/09/09 10:57:57;;;;;;;10.03;3.13;;;;;;;21.84;100.00;100590.09;4998738;28;20032;-51
2022/09/09 11:00:27;;;;;;;9.70;3.37;;;;;;;22.26;100.00;100569.78;5000103;28;20117;-51
2022/09/09 11:03:04;;;;;;;22.20;7.63;;;;;;;22.31;100.00;100563.47;4996102;28;20081;-53
2022/09/09 11:05:43;;;;;;;;;;;;;;;22.55;100.00;100562.78;5004586;28;20042;-53
2022/09/09 11:08:25;;;;;;;13.57;5.03;;;;;;;23.00;100.00;100563.53;5004778;28;19977;-51
2022/09/09 11:11:13;;;;;;;8.00;3.93;;;;;;;23.36;100.00;100569.78;5000332;28;20408;-51
2022/09/09 11:13:51;;;;;;;9.93;4.07;;;;;;;24.13;100.00;100562.66;5003579;28;20104;-52
2022/09/09 11:16:35;;;;;;;8.00;2.80;;;;;;;23.39;100.00;100572.75;5001259;28;20058;-50
2022/09/09 11:19:29;;;;;;;17.33;3.27;;;;;;;23.20;100.00;100568.00;4994959;28;20041;-51
2022/09/09 11:21:59;;;;;;;10.63;3.07;;;;;;;23.45;100.00;100568.88;5002829;28;20057;-51
2022/09/09 11:25:05;;;;;;;16.43;3.40;;;;;;;22.94;100.00;100569.31;4987922;28;20031;-51
2022/09/09 11:27:50;;;;;;;10.20;2.47;;;;;;;22.53;100.00;100554.91;4989344;28;20044;-53
2022/09/09 11:30:20;;;;;;;17.37;3.00;;;;;;;22.00;100.00;100553.53;4978710;28;20043;-53
2022/09/09 11:33:23;;;;;;;8.07;2.43;;;;;;;22.33;100.00;100561.25;5008304;28;20058;-51
2022/09/09 11:36:08;;;;;;;15.67;3.67;;;;;;;23.25;100.00;100567.16;5007941;28;20038;-52
2022/09/09 11:38:51;;;;;;;8.30;2.10;;;;;;;24.79;100.00;100570.16;4992133;28;20060;-52
2022/09/09 11:41:23;;;;;;;10.10;3.43;;;;;;;26.06;100.00;100570.81;4992758;28;20027;-54